createdAt,value
2023-04-19T00:00:21.276Z,18.64
2023-04-19T00:01:21.324Z,18.32
2023-04-19T00:02:21.579Z,18.32
2023-04-19T00:03:21.707Z,18.64
2023-04-19T00:04:22.066Z,18.64
2023-04-19T00:05:21.777Z,18.32
2023-04-19T00:06:21.762Z,19.93
2023-04-19T00:07:21.853Z,18.32
2023-04-19T00:08:21.951Z,18.00
2023-04-19T00:09:22.051Z,18.32
2023-04-19T00:10:28.098Z,19.29
2023-04-19T00:11:22.189Z,18.64
2023-04-19T00:12:22.280Z,18.64
2023-04-19T00:13:22.389Z,18.64
2023-04-19T00:14:22.476Z,18.64
2023-04-19T00:15:22.585Z,18.32
2023-04-19T00:16:22.705Z,18.32
2023-04-19T00:17:22.742Z,20.58
2023-04-19T00:18:22.777Z,18.64
2023-04-19T00:19:22.873Z,18.32
2023-04-19T00:20:22.996Z,18.64
2023-04-19T00:21:23.061Z,18.00
2023-04-19T00:22:23.148Z,18.64
2023-04-19T00:23:23.237Z,18.32
2023-04-19T00:24:23.350Z,18.64
2023-04-19T00:25:23.430Z,18.32
2023-04-19T00:26:23.540Z,18.00
2023-04-19T00:27:23.618Z,18.32
2023-04-19T00:28:23.709Z,17.68
2023-04-19T00:29:23.787Z,18.64
2023-04-19T00:30:23.878Z,20.25
2023-04-19T00:31:24.098Z,18.32
2023-04-19T00:32:24.044Z,18.32
2023-04-19T00:33:24.121Z,18.64
2023-04-19T00:34:24.208Z,18.64
2023-04-19T00:35:24.383Z,18.32
2023-04-19T00:36:24.362Z,18.32
2023-04-19T00:37:24.479Z,20.58
2023-04-19T00:38:24.524Z,18.32
2023-04-19T00:39:24.630Z,18.32
2023-04-19T00:40:24.694Z,18.64
2023-04-19T00:41:30.780Z,18.96
2023-04-19T00:42:24.847Z,19.29
2023-04-19T00:43:24.938Z,19.29
2023-04-19T00:44:24.982Z,18.32
2023-04-19T00:45:25.083Z,18.00
2023-04-19T00:46:25.203Z,20.25
2023-04-19T00:47:25.282Z,18.32
2023-04-19T00:48:25.352Z,18.32
2023-04-19T00:49:25.451Z,20.25
2023-04-19T00:50:25.548Z,18.32
2023-04-19T00:51:25.621Z,18.32
2023-04-19T00:52:25.717Z,18.00
2023-04-19T00:53:25.805Z,19.61
2023-04-19T00:54:25.901Z,18.00
2023-04-19T00:55:25.992Z,18.00
2023-04-19T00:56:26.049Z,18.32
2023-04-19T00:57:26.155Z,18.32
2023-04-19T00:58:26.227Z,18.32
2023-04-19T00:59:26.321Z,18.64
2023-04-19T01:00:26.420Z,19.61
2023-04-19T01:01:26.592Z,18.64
2023-04-19T01:02:26.726Z,18.64
2023-04-19T01:03:26.833Z,18.00
2023-04-19T01:04:26.893Z,18.32
2023-04-19T01:05:26.825Z,18.00
2023-04-19T01:06:26.907Z,18.00
2023-04-19T01:07:27.014Z,18.64
2023-04-19T01:08:27.058Z,18.32
2023-04-19T01:09:27.198Z,18.00
2023-04-19T01:10:27.240Z,18.00
2023-04-19T01:11:27.340Z,18.00
2023-04-19T01:12:33.563Z,19.61
2023-04-19T01:13:27.499Z,17.68
2023-04-19T01:14:27.574Z,18.00
2023-04-19T01:15:27.667Z,18.00
2023-04-19T01:16:27.877Z,18.32
2023-04-19T01:17:27.897Z,18.00
2023-04-19T01:18:27.958Z,18.32
2023-04-19T01:19:28.022Z,18.32
2023-04-19T01:20:28.116Z,18.64
2023-04-19T01:21:28.181Z,18.32
2023-04-19T01:22:28.289Z,18.64
2023-04-19T01:23:28.312Z,18.32
2023-04-19T01:24:28.408Z,18.00
2023-04-19T01:25:28.452Z,18.64
2023-04-19T01:26:28.516Z,19.29
2023-04-19T01:27:28.591Z,18.32
2023-04-19T01:28:28.668Z,18.64
2023-04-19T01:29:28.765Z,18.00
2023-04-19T01:30:28.886Z,18.00
2023-04-19T01:31:28.968Z,18.32
2023-04-19T01:32:29.090Z,18.00
2023-04-19T01:33:29.107Z,18.64
2023-04-19T01:34:29.198Z,17.68
2023-04-19T01:35:29.308Z,18.00
2023-04-19T01:36:29.369Z,18.32
2023-04-19T01:37:29.464Z,18.32
2023-04-19T01:38:29.572Z,19.61
2023-04-19T01:39:29.668Z,18.64
2023-04-19T01:40:29.766Z,18.64
2023-04-19T01:41:29.864Z,17.03
2023-04-19T01:42:29.993Z,20.25
2023-04-19T01:43:36.019Z,18.64
2023-04-19T01:44:30.146Z,18.32
2023-04-19T01:45:30.225Z,18.64
2023-04-19T01:46:30.354Z,18.00
2023-04-19T01:47:30.410Z,18.32
2023-04-19T01:48:30.489Z,17.68
2023-04-19T01:49:30.578Z,18.32
2023-04-19T01:50:30.648Z,18.00
2023-04-19T01:51:30.730Z,17.68
2023-04-19T01:52:30.849Z,17.68
2023-04-19T01:53:30.919Z,18.32
2023-04-19T01:54:30.990Z,17.68
2023-04-19T01:55:31.079Z,18.00
2023-04-19T01:56:31.164Z,18.32
2023-04-19T01:57:31.293Z,18.32
2023-04-19T01:58:31.349Z,18.00
2023-04-19T01:59:31.422Z,18.00
2023-04-19T02:00:31.529Z,18.00
2023-04-19T02:01:31.586Z,18.00
2023-04-19T02:02:31.831Z,18.00
2023-04-19T02:03:31.936Z,17.68
2023-04-19T02:04:31.866Z,17.35
2023-04-19T02:05:31.973Z,18.64
2023-04-19T02:06:32.054Z,18.00
2023-04-19T02:07:32.152Z,18.00
2023-04-19T02:08:32.267Z,18.64
2023-04-19T02:09:32.306Z,18.00
2023-04-19T02:10:32.409Z,17.68
2023-04-19T02:11:32.497Z,18.00
2023-04-19T02:12:32.585Z,19.29
2023-04-19T02:13:32.683Z,18.00
2023-04-19T02:14:39.097Z,18.00
2023-04-19T02:15:32.861Z,18.32
2023-04-19T02:16:35.632Z,18.00
2023-04-19T02:17:33.093Z,18.32
2023-04-19T02:18:33.143Z,17.68
2023-04-19T02:19:33.203Z,18.32
2023-04-19T02:20:33.279Z,18.96
2023-04-19T02:21:33.336Z,20.25
2023-04-19T02:22:33.433Z,18.00
2023-04-19T02:23:33.543Z,18.00
2023-04-19T02:24:33.630Z,18.64
2023-04-19T02:25:33.705Z,18.32
2023-04-19T02:26:33.772Z,19.29
2023-04-19T02:27:33.884Z,17.68
2023-04-19T02:28:33.924Z,18.32
2023-04-19T02:29:34.000Z,18.64
2023-04-19T02:30:34.094Z,17.68
2023-04-19T02:31:34.187Z,18.00
2023-04-19T02:32:34.263Z,18.32
2023-04-19T02:33:34.343Z,19.93
2023-04-19T02:34:34.433Z,18.00
2023-04-19T02:35:34.522Z,18.32
2023-04-19T02:36:34.619Z,18.32
2023-04-19T02:37:34.717Z,18.32
2023-04-19T02:38:34.775Z,18.00
2023-04-19T02:39:34.840Z,18.32
2023-04-19T02:40:34.929Z,19.93
2023-04-19T02:41:35.005Z,18.64
2023-04-19T02:42:35.127Z,18.64
2023-04-19T02:43:35.268Z,18.32
2023-04-19T02:44:35.282Z,18.32
2023-04-19T02:45:41.375Z,18.64
2023-04-19T02:46:35.537Z,18.00
2023-04-19T02:47:35.594Z,18.32
2023-04-19T02:48:35.655Z,18.64
2023-04-19T02:49:35.728Z,19.29
2023-04-19T02:50:35.812Z,18.32
2023-04-19T02:51:35.867Z,20.25
2023-04-19T02:52:35.938Z,20.25
2023-04-19T02:53:36.041Z,18.64
2023-04-19T02:54:36.089Z,18.64
2023-04-19T02:55:36.163Z,20.25
2023-04-19T02:56:36.254Z,18.32
2023-04-19T02:57:36.348Z,18.32
2023-04-19T02:58:36.455Z,18.00
2023-04-19T02:59:36.544Z,18.96
2023-04-19T03:00:36.611Z,18.32
2023-04-19T03:01:36.729Z,18.96
2023-04-19T03:02:36.838Z,19.29
2023-04-19T03:03:36.939Z,18.64
2023-04-19T03:04:37.024Z,18.96
2023-04-19T03:05:37.048Z,18.64
2023-04-19T03:06:37.128Z,18.32
2023-04-19T03:07:37.220Z,18.64
2023-04-19T03:08:37.316Z,18.32
2023-04-19T03:09:37.410Z,18.64
2023-04-19T03:10:37.540Z,18.64
2023-04-19T03:11:37.582Z,18.64
2023-04-19T03:12:37.675Z,18.96
2023-04-19T03:13:37.765Z,18.32
2023-04-19T03:14:37.863Z,18.96
2023-04-19T03:15:38.002Z,18.32
2023-04-19T03:16:43.985Z,18.64
2023-04-19T03:17:38.238Z,18.64
2023-04-19T03:18:38.138Z,18.64
2023-04-19T03:19:38.224Z,19.29
2023-04-19T03:20:38.324Z,18.96
2023-04-19T03:21:38.435Z,18.96
2023-04-19T03:22:38.509Z,18.96
2023-04-19T03:23:38.602Z,18.64
2023-04-19T03:24:38.652Z,18.96
2023-04-19T03:25:38.744Z,18.64
2023-04-19T03:26:38.808Z,18.96
2023-04-19T03:27:38.904Z,18.64
2023-04-19T03:28:38.964Z,19.29
2023-04-19T03:29:39.045Z,19.29
2023-04-19T03:30:39.146Z,18.64
2023-04-19T03:31:39.250Z,19.93
2023-04-19T03:32:39.357Z,18.96
2023-04-19T03:33:39.383Z,18.64
2023-04-19T03:34:39.471Z,18.96
2023-04-19T03:35:39.547Z,18.96
2023-04-19T03:36:39.663Z,18.64
2023-04-19T03:37:39.727Z,19.61
2023-04-19T03:38:39.813Z,19.29
2023-04-19T03:39:39.942Z,19.61
2023-04-19T03:40:39.949Z,19.29
2023-04-19T03:41:40.043Z,18.64
2023-04-19T03:42:40.133Z,18.96
2023-04-19T03:43:40.227Z,18.96
2023-04-19T03:44:40.354Z,20.58
2023-04-19T03:45:40.427Z,18.96
2023-04-19T03:46:40.586Z,18.64
2023-04-19T03:47:46.587Z,18.96
2023-04-19T03:48:40.634Z,19.29
2023-04-19T03:49:40.720Z,18.64
2023-04-19T03:50:40.829Z,19.61
2023-04-19T03:51:40.932Z,18.32
2023-04-19T03:52:40.996Z,18.32
2023-04-19T03:53:41.082Z,18.32
2023-04-19T03:54:41.161Z,18.96
2023-04-19T03:55:41.247Z,19.29
2023-04-19T03:56:41.345Z,18.96
2023-04-19T03:57:41.458Z,19.29
2023-04-19T03:58:42.801Z,18.64
2023-04-19T03:59:41.611Z,18.64
2023-04-19T04:00:41.702Z,18.96
2023-04-19T04:01:42.057Z,19.93
2023-04-19T04:02:42.054Z,18.96
2023-04-19T04:03:42.158Z,20.90
2023-04-19T04:04:42.163Z,18.96
2023-04-19T04:05:42.216Z,19.29
2023-04-19T04:06:42.182Z,18.64
2023-04-19T04:07:42.268Z,18.64
2023-04-19T04:08:42.362Z,19.29
2023-04-19T04:09:42.434Z,19.29
2023-04-19T04:10:42.477Z,18.64
2023-04-19T04:11:42.570Z,18.96
2023-04-19T04:12:42.669Z,19.29
2023-04-19T04:13:42.760Z,20.58
2023-04-19T04:14:42.851Z,19.29
2023-04-19T04:15:42.965Z,18.96
2023-04-19T04:16:43.146Z,18.32
2023-04-19T04:17:43.199Z,19.29
2023-04-19T04:18:49.201Z,19.61
2023-04-19T04:19:43.313Z,18.96
2023-04-19T04:20:43.409Z,18.64
2023-04-19T04:21:43.557Z,18.64
2023-04-19T04:22:43.569Z,20.58
2023-04-19T04:23:43.681Z,19.29
2023-04-19T04:24:43.751Z,18.64
2023-04-19T04:25:43.839Z,18.96
2023-04-19T04:26:43.938Z,20.90
2023-04-19T04:27:44.024Z,19.29
2023-04-19T04:28:44.124Z,19.61
2023-04-19T04:29:44.241Z,20.25
2023-04-19T04:30:44.291Z,18.32
2023-04-19T04:31:44.433Z,19.29
2023-04-19T04:32:44.533Z,20.90
2023-04-19T04:33:44.562Z,20.58
2023-04-19T04:34:44.662Z,18.96
2023-04-19T04:35:44.749Z,18.64
2023-04-19T04:36:44.845Z,18.64
2023-04-19T04:37:44.953Z,19.29
2023-04-19T04:38:45.005Z,19.29
2023-04-19T04:39:45.067Z,19.29
2023-04-19T04:40:45.153Z,19.29
2023-04-19T04:41:45.241Z,19.29
2023-04-19T04:42:45.331Z,18.96
2023-04-19T04:43:45.444Z,19.29
2023-04-19T04:44:45.542Z,18.64
2023-04-19T04:45:45.627Z,19.29
2023-04-19T04:46:45.651Z,18.96
2023-04-19T04:47:45.747Z,19.29
2023-04-19T04:48:45.836Z,19.29
2023-04-19T04:49:52.186Z,19.29
2023-04-19T04:50:46.019Z,19.61
2023-04-19T04:51:46.128Z,18.96
2023-04-19T04:52:46.191Z,19.29
2023-04-19T04:53:46.280Z,19.29
2023-04-19T04:54:46.391Z,19.29
2023-04-19T04:55:46.460Z,19.29
2023-04-19T04:56:46.572Z,19.29
2023-04-19T04:57:46.624Z,19.29
2023-04-19T04:58:46.731Z,19.29
2023-04-19T04:59:46.778Z,19.29
2023-04-19T05:00:46.890Z,18.96
2023-04-19T05:01:46.965Z,19.61
2023-04-19T05:02:47.057Z,19.29
2023-04-19T05:03:47.142Z,19.29
2023-04-19T05:04:47.320Z,21.22
2023-04-19T05:05:47.295Z,19.29
2023-04-19T05:06:47.400Z,18.96
2023-04-19T05:07:47.448Z,19.29
2023-04-19T05:08:47.520Z,19.61
2023-04-19T05:09:47.650Z,21.54
2023-04-19T05:10:47.671Z,21.54
2023-04-19T05:11:47.763Z,19.93
2023-04-19T05:12:47.862Z,19.61
2023-04-19T05:13:47.946Z,19.29
2023-04-19T05:14:48.039Z,19.61
2023-04-19T05:15:48.137Z,19.29
2023-04-19T05:16:48.236Z,19.29
2023-04-19T05:17:48.343Z,19.29
2023-04-19T05:18:48.358Z,19.29
2023-04-19T05:19:48.448Z,19.61
2023-04-19T05:20:54.518Z,19.29
2023-04-19T05:21:48.628Z,19.61
2023-04-19T05:22:48.728Z,19.29
2023-04-19T05:23:48.823Z,19.29
2023-04-19T05:24:48.905Z,19.61
2023-04-19T05:25:48.997Z,19.93
2023-04-19T05:26:49.145Z,19.61
2023-04-19T05:27:49.191Z,22.19
2023-04-19T05:28:49.302Z,19.61
2023-04-19T05:29:49.346Z,19.93
2023-04-19T05:30:49.449Z,19.61
2023-04-19T05:31:49.656Z,19.61
2023-04-19T05:32:49.635Z,19.29
2023-04-19T05:33:49.671Z,20.58
2023-04-19T05:34:49.846Z,19.93
2023-04-19T05:35:49.814Z,19.29
2023-04-19T05:36:49.911Z,19.61
2023-04-19T05:37:50.007Z,19.29
2023-04-19T05:38:50.091Z,19.93
2023-04-19T05:39:50.217Z,19.61
2023-04-19T05:40:50.262Z,19.61
2023-04-19T05:41:50.325Z,19.61
2023-04-19T05:42:50.452Z,19.93
2023-04-19T05:43:50.510Z,19.93
2023-04-19T05:44:50.621Z,19.61
2023-04-19T05:45:50.777Z,19.61
2023-04-19T05:46:50.791Z,19.29
2023-04-19T05:47:50.901Z,19.93
2023-04-19T05:48:50.979Z,19.29
2023-04-19T05:49:51.090Z,19.61
2023-04-19T05:50:51.168Z,19.61
2023-04-19T05:51:57.213Z,19.61
2023-04-19T05:52:51.347Z,19.61
2023-04-19T05:53:51.398Z,19.93
2023-04-19T05:54:51.510Z,19.61
2023-04-19T05:55:51.573Z,19.93
2023-04-19T05:56:51.700Z,19.93
2023-04-19T05:57:51.766Z,19.61
2023-04-19T05:58:51.845Z,20.58
2023-04-19T05:59:51.931Z,20.58
2023-04-19T06:00:52.038Z,19.61
2023-04-19T06:01:52.176Z,19.93
2023-04-19T06:02:52.480Z,21.87
2023-04-19T06:03:52.630Z,20.25
2023-04-19T06:04:52.492Z,19.93
2023-04-19T06:05:52.514Z,19.93
2023-04-19T06:06:52.596Z,19.93
2023-04-19T06:07:55.816Z,19.61
2023-04-19T06:08:54.874Z,19.93
2023-04-19T06:09:52.840Z,19.61
2023-04-19T06:10:55.908Z,19.61
2023-04-19T06:11:52.971Z,19.61
2023-04-19T06:12:53.113Z,19.93
2023-04-19T06:13:53.225Z,20.25
2023-04-19T06:14:53.240Z,19.93
2023-04-19T06:15:53.308Z,20.25
2023-04-19T06:16:53.335Z,19.93
2023-04-19T06:17:53.443Z,19.93
2023-04-19T06:18:53.534Z,20.25
2023-04-19T06:19:53.596Z,19.93
2023-04-19T06:20:53.678Z,19.93
2023-04-19T06:21:53.782Z,21.87
2023-04-19T06:22:59.969Z,19.61
2023-04-19T06:23:54.009Z,20.25
2023-04-19T06:24:54.009Z,19.93
2023-04-19T06:25:54.142Z,19.93
2023-04-19T06:26:54.186Z,21.22
2023-04-19T06:27:54.333Z,19.93
2023-04-19T06:28:54.336Z,19.93
2023-04-19T06:29:54.493Z,21.87
2023-04-19T06:30:54.483Z,19.93
2023-04-19T06:31:54.628Z,20.25
2023-04-19T06:32:54.661Z,21.22
2023-04-19T06:33:54.743Z,20.58
2023-04-19T06:34:54.886Z,19.93
2023-04-19T06:35:54.891Z,20.25
2023-04-19T06:36:54.973Z,19.61
2023-04-19T06:37:55.064Z,19.93
2023-04-19T06:38:55.141Z,20.25
2023-04-19T06:39:55.237Z,19.93
2023-04-19T06:40:55.418Z,19.29
2023-04-19T06:41:55.410Z,19.93
2023-04-19T06:42:55.456Z,19.93
2023-04-19T06:43:55.560Z,19.93
2023-04-19T06:44:55.644Z,20.25
2023-04-19T06:45:55.762Z,20.25
2023-04-19T06:46:55.769Z,19.93
2023-04-19T06:47:55.878Z,19.93
2023-04-19T06:48:55.930Z,19.93
2023-04-19T06:49:56.005Z,20.25
2023-04-19T06:50:56.098Z,19.93
2023-04-19T06:51:56.297Z,20.25
2023-04-19T06:52:56.290Z,19.93
2023-04-19T06:54:02.320Z,20.25
2023-04-19T06:54:56.417Z,19.93
2023-04-19T06:55:56.534Z,19.93
2023-04-19T06:56:56.581Z,19.93
2023-04-19T06:57:56.685Z,21.54
2023-04-19T06:58:56.771Z,19.93
2023-04-19T06:59:56.866Z,19.93
2023-04-19T07:00:56.976Z,20.58
2023-04-19T07:01:57.261Z,20.58
2023-04-19T07:02:57.288Z,19.93
2023-04-19T07:03:57.655Z,21.54
2023-04-19T07:04:57.332Z,19.93
2023-04-19T07:05:57.446Z,20.58
2023-04-19T07:06:57.527Z,20.25
2023-04-19T07:07:57.623Z,19.93
2023-04-19T07:08:57.703Z,21.22
2023-04-19T07:09:57.769Z,19.93
2023-04-19T07:10:57.857Z,21.87
2023-04-19T07:11:57.950Z,20.90
2023-04-19T07:12:58.070Z,19.93
2023-04-19T07:13:58.173Z,20.25
2023-04-19T07:14:58.219Z,20.25
2023-04-19T07:15:58.324Z,19.93
2023-04-19T07:16:58.403Z,20.58
2023-04-19T07:17:58.516Z,19.93
2023-04-19T07:18:58.600Z,20.90
2023-04-19T07:19:58.700Z,19.93
2023-04-19T07:20:58.751Z,19.93
2023-04-19T07:21:58.841Z,21.54
2023-04-19T07:22:58.924Z,20.25
2023-04-19T07:23:59.024Z,20.25
2023-04-19T07:25:05.368Z,20.25
2023-04-19T07:25:59.191Z,20.25
2023-04-19T07:26:59.277Z,20.25
2023-04-19T07:27:59.351Z,20.90
2023-04-19T07:28:59.445Z,19.93
2023-04-19T07:29:59.510Z,19.93
2023-04-19T07:30:59.623Z,19.93
2023-04-19T07:31:59.695Z,21.54
2023-04-19T07:32:59.850Z,20.25
2023-04-19T07:33:59.868Z,19.93
2023-04-19T07:34:59.981Z,20.25
2023-04-19T07:36:00.050Z,20.25
2023-04-19T07:37:00.131Z,20.25
2023-04-19T07:38:00.293Z,20.58
2023-04-19T07:39:00.273Z,19.61
2023-04-19T07:40:00.354Z,20.58
2023-04-19T07:41:00.449Z,20.58
2023-04-19T07:42:00.564Z,20.25
2023-04-19T07:43:00.605Z,20.25
2023-04-19T07:44:00.683Z,19.93
2023-04-19T07:45:00.765Z,21.54
2023-04-19T07:46:00.932Z,22.19
2023-04-19T07:47:01.046Z,20.25
2023-04-19T07:48:01.092Z,20.25
2023-04-19T07:49:01.175Z,20.58
2023-04-19T07:50:01.290Z,19.93
2023-04-19T07:51:01.347Z,20.25
2023-04-19T07:52:01.398Z,20.25
2023-04-19T07:53:01.523Z,20.25
2023-04-19T07:54:01.558Z,20.90
2023-04-19T07:55:01.650Z,19.93
2023-04-19T07:56:07.674Z,20.25
2023-04-19T07:57:01.809Z,20.25
2023-04-19T07:58:01.966Z,22.19
2023-04-19T07:59:08.438Z,20.25
2023-04-19T08:00:02.049Z,19.61
2023-04-19T08:01:02.166Z,20.25
2023-04-19T08:02:02.261Z,19.93
2023-04-19T08:03:02.552Z,20.58
2023-04-19T08:04:02.549Z,21.54
2023-04-19T08:05:02.606Z,21.22
2023-04-19T08:06:02.556Z,19.93
2023-04-19T08:07:02.633Z,19.93
2023-04-19T08:08:02.717Z,20.58
2023-04-19T08:09:02.818Z,19.93
2023-04-19T08:10:02.942Z,20.25
2023-04-19T08:11:02.969Z,22.19
2023-04-19T08:12:03.062Z,20.58
2023-04-19T08:13:06.234Z,20.25
2023-04-19T08:14:11.993Z,19.61
2023-04-19T08:15:15.239Z,20.25
2023-04-19T08:16:41.482Z,20.25
2023-04-19T08:17:19.513Z,19.93
2023-04-19T08:18:03.631Z,20.58
2023-04-19T08:19:03.667Z,20.58
2023-04-19T08:20:03.721Z,19.93
2023-04-19T08:21:03.834Z,20.25
2023-04-19T08:22:03.933Z,20.58
2023-04-19T08:23:14.053Z,21.22
2023-04-19T08:24:04.082Z,20.25
2023-04-19T08:25:04.132Z,20.90
2023-04-19T08:26:04.213Z,20.58
2023-04-19T08:27:10.335Z,21.22
2023-04-19T08:28:04.403Z,20.58
2023-04-19T08:29:04.497Z,20.58
2023-04-19T08:30:04.539Z,22.19
2023-04-19T08:31:04.626Z,20.25
2023-04-19T08:32:04.747Z,22.19
2023-04-19T08:33:04.833Z,20.58
2023-04-19T08:34:04.895Z,20.58
2023-04-19T08:35:04.962Z,20.25
2023-04-19T08:36:05.059Z,21.87
2023-04-19T08:37:05.238Z,20.25
2023-04-19T08:38:05.241Z,20.58
2023-04-19T08:39:24.810Z,20.25
2023-04-19T08:40:05.522Z,19.93
2023-04-19T08:41:05.475Z,20.58
2023-04-19T08:42:10.387Z,20.58
2023-04-19T08:43:05.647Z,20.90
2023-04-19T08:44:05.763Z,19.93
2023-04-19T08:46:06.001Z,20.25
2023-04-19T08:47:06.007Z,20.58
2023-04-19T08:48:06.142Z,20.25
2023-04-19T08:49:06.196Z,20.58
2023-04-19T08:50:17.477Z,19.93
2023-04-19T08:51:06.395Z,20.25
2023-04-19T08:52:06.411Z,19.61
2023-04-19T08:53:21.063Z,21.22
2023-04-19T08:54:06.584Z,20.25
2023-04-19T08:55:06.703Z,20.58
2023-04-19T08:57:06.826Z,20.90
2023-04-19T08:58:26.259Z,20.25
2023-04-19T08:59:20.117Z,20.25
2023-04-19T09:00:07.066Z,19.93
2023-04-19T09:01:07.163Z,20.58
2023-04-19T09:02:07.363Z,19.93
2023-04-19T09:03:07.553Z,20.25
2023-04-19T09:04:31.549Z,19.93
2023-04-19T09:05:07.899Z,20.58
2023-04-19T09:06:07.869Z,20.58
2023-04-19T09:07:07.691Z,20.25
2023-04-19T09:08:07.790Z,20.25
2023-04-19T09:09:10.289Z,20.25
2023-04-19T09:10:08.410Z,21.87
2023-04-19T09:11:08.054Z,20.25
2023-04-19T09:12:08.143Z,20.58
2023-04-19T09:13:08.237Z,20.25
2023-04-19T09:14:08.835Z,19.93
2023-04-19T09:15:08.426Z,21.22
2023-04-19T09:16:08.584Z,22.19
2023-04-19T09:17:08.742Z,20.25
2023-04-19T09:18:08.742Z,20.25
2023-04-19T09:19:22.446Z,21.54
2023-04-19T09:20:08.861Z,22.19
2023-04-19T09:21:08.935Z,22.19
2023-04-19T09:22:09.073Z,20.25
2023-04-19T09:23:09.302Z,20.25
2023-04-19T09:24:09.186Z,20.58
2023-04-19T09:26:23.011Z,19.93
2023-04-19T09:27:09.436Z,20.58
2023-04-19T09:28:09.530Z,20.25
2023-04-19T09:29:15.986Z,20.25
2023-04-19T09:30:17.546Z,21.87
2023-04-19T09:31:29.854Z,20.90
2023-04-19T09:32:09.859Z,19.93
2023-04-19T09:33:09.982Z,20.25
2023-04-19T09:34:09.996Z,20.25
2023-04-19T09:35:10.086Z,20.58
2023-04-19T09:36:10.170Z,20.58
2023-04-19T09:37:15.196Z,20.58
2023-04-19T09:38:10.366Z,21.54
2023-04-19T09:39:10.414Z,20.58
2023-04-19T09:40:10.509Z,20.58
2023-04-19T09:41:10.593Z,20.90
2023-04-19T09:42:10.679Z,20.90
2023-04-19T09:43:45.285Z,20.25
2023-04-19T09:44:52.454Z,21.22
2023-04-19T09:46:11.068Z,20.25
2023-04-19T09:47:11.137Z,20.25
2023-04-19T09:48:11.298Z,20.25
2023-04-19T09:49:20.344Z,22.19
2023-04-19T09:50:22.873Z,21.22
2023-04-19T09:51:13.901Z,20.90
2023-04-19T09:52:11.493Z,20.90
2023-04-19T09:53:11.586Z,21.87
2023-04-19T09:54:11.685Z,20.90
2023-04-19T09:55:24.909Z,20.58
2023-04-19T09:56:11.862Z,22.19
2023-04-19T09:57:11.983Z,21.87
2023-04-19T09:58:12.029Z,20.25
2023-04-19T09:59:20.717Z,20.58
2023-04-19T10:01:27.030Z,20.90
2023-04-19T10:02:28.135Z,20.58
2023-04-19T10:03:28.164Z,20.58
2023-04-19T10:04:38.477Z,20.58
2023-04-19T10:05:28.354Z,20.58
2023-04-19T10:06:45.946Z,19.93
2023-04-19T10:07:30.719Z,20.58
2023-04-19T10:08:28.546Z,20.90
2023-04-19T10:09:28.635Z,21.54
2023-04-19T10:10:41.298Z,20.58
2023-04-19T10:11:28.790Z,22.51
2023-04-19T10:13:29.012Z,21.87
2023-04-19T10:14:29.075Z,19.93
2023-04-19T10:15:33.797Z,20.25
2023-04-19T10:16:29.245Z,20.58
2023-04-19T10:17:29.386Z,20.25
2023-04-19T10:18:29.424Z,20.25
2023-04-19T10:19:29.619Z,21.22
2023-04-19T10:20:29.621Z,20.25
2023-04-19T10:21:29.707Z,20.25
2023-04-19T10:22:29.817Z,20.58
2023-04-19T10:23:29.888Z,20.58
2023-04-19T10:24:29.996Z,21.87
2023-04-19T10:25:30.089Z,20.58
2023-04-19T10:26:30.136Z,20.58
2023-04-19T10:27:30.233Z,20.58
2023-04-19T10:28:30.329Z,20.90
2023-04-19T10:29:30.416Z,20.90
2023-04-19T10:30:30.525Z,20.58
2023-04-19T10:31:30.622Z,21.87
2023-04-19T10:32:36.644Z,20.58
2023-04-19T10:33:30.752Z,20.90
2023-04-19T10:34:30.841Z,20.90
2023-04-19T10:35:30.958Z,20.58
2023-04-19T10:36:31.020Z,20.58
2023-04-19T10:37:31.095Z,20.90
2023-04-19T10:38:31.182Z,22.19
2023-04-19T10:39:31.269Z,20.90
2023-04-19T10:40:31.548Z,20.58
2023-04-19T10:41:31.496Z,21.22
2023-04-19T10:42:31.535Z,21.87
2023-04-19T10:43:31.649Z,20.25
2023-04-19T10:44:31.688Z,21.54
2023-04-19T10:45:31.781Z,21.22
2023-04-19T10:46:31.924Z,20.90
2023-04-19T10:47:32.002Z,20.58
2023-04-19T10:48:32.031Z,21.22
2023-04-19T10:49:32.127Z,22.51
2023-04-19T10:50:32.227Z,22.83
2023-04-19T10:51:32.335Z,20.90
2023-04-19T10:52:32.422Z,20.90
2023-04-19T10:53:32.531Z,20.58
2023-04-19T10:54:32.668Z,21.22
2023-04-19T10:55:32.683Z,20.90
2023-04-19T10:56:32.764Z,20.90
2023-04-19T10:57:32.865Z,21.22
2023-04-19T10:58:32.980Z,22.19
2023-04-19T10:59:33.038Z,21.22
2023-04-19T11:00:33.121Z,20.90
2023-04-19T11:01:33.257Z,20.58
2023-04-19T11:02:33.422Z,20.90
2023-04-19T11:03:39.809Z,20.90
2023-04-19T11:04:33.513Z,20.90
2023-04-19T11:05:33.504Z,20.90
2023-04-19T11:06:33.570Z,21.54
2023-04-19T11:07:33.665Z,20.25
2023-04-19T11:08:33.759Z,20.90
2023-04-19T11:09:33.872Z,22.19
2023-04-19T11:10:33.933Z,20.58
2023-04-19T11:11:34.019Z,21.22
2023-04-19T11:12:34.108Z,20.58
2023-04-19T11:13:34.162Z,20.90
2023-04-19T11:14:34.273Z,20.58
2023-04-19T11:15:34.391Z,20.90
2023-04-19T11:16:45.602Z,23.15
2023-04-19T11:17:34.526Z,21.22
2023-04-19T11:18:34.717Z,20.25
2023-04-19T11:19:35.241Z,20.58
2023-04-19T11:20:34.808Z,20.90
2023-04-19T11:21:34.893Z,20.58
2023-04-19T11:22:34.988Z,20.58
2023-04-19T11:23:35.037Z,21.22
2023-04-19T11:24:35.109Z,20.58
2023-04-19T11:25:35.250Z,23.48
2023-04-19T11:26:35.271Z,21.22
2023-04-19T11:27:35.369Z,21.22
2023-04-19T11:28:35.454Z,20.90
2023-04-19T11:29:35.544Z,20.90
2023-04-19T11:30:35.637Z,22.19
2023-04-19T11:31:35.775Z,23.15
2023-04-19T11:32:35.814Z,20.58
2023-04-19T11:33:35.854Z,21.22
2023-04-19T11:34:41.921Z,20.90
2023-04-19T11:35:35.998Z,22.51
2023-04-19T11:36:36.118Z,21.22
2023-04-19T11:37:36.451Z,20.90
2023-04-19T11:38:36.214Z,21.22
2023-04-19T11:39:36.350Z,20.90
2023-04-19T11:40:36.403Z,20.58
2023-04-19T11:41:36.500Z,21.54
2023-04-19T11:42:36.603Z,20.90
2023-04-19T11:43:36.667Z,21.22
2023-04-19T11:44:36.738Z,20.58
2023-04-19T11:45:39.550Z,21.22
2023-04-19T11:46:37.006Z,21.22
2023-04-19T11:47:37.098Z,20.90
2023-04-19T11:48:37.214Z,21.54
2023-04-19T11:49:37.162Z,21.22
2023-04-19T11:50:37.296Z,21.22
2023-04-19T11:51:37.350Z,21.22
2023-04-19T11:52:37.431Z,20.90
2023-04-19T11:53:37.559Z,21.22
2023-04-19T11:54:38.609Z,21.22
2023-04-19T11:55:37.719Z,21.54
2023-04-19T11:56:37.842Z,21.22
2023-04-19T11:57:38.646Z,22.83
2023-04-19T11:58:37.972Z,21.22
2023-04-19T11:59:38.048Z,21.54
2023-04-19T12:00:38.202Z,20.90
2023-04-19T12:01:38.195Z,20.58
2023-04-19T12:02:38.539Z,20.90
2023-04-19T12:03:38.439Z,20.90
2023-04-19T12:04:38.750Z,21.22
2023-04-19T12:05:44.547Z,20.90
2023-04-19T12:06:38.583Z,20.90
2023-04-19T12:07:38.679Z,20.90
2023-04-19T12:08:38.770Z,21.54
2023-04-19T12:09:38.865Z,21.22
2023-04-19T12:10:38.970Z,21.22
2023-04-19T12:11:39.033Z,19.93
2023-04-19T12:12:39.205Z,21.54
2023-04-19T12:13:39.251Z,21.22
2023-04-19T12:14:39.382Z,22.51
2023-04-19T12:15:39.421Z,21.22
2023-04-19T12:16:39.572Z,22.51
2023-04-19T12:17:44.806Z,21.22
2023-04-19T12:18:39.660Z,21.87
2023-04-19T12:19:39.869Z,20.90
2023-04-19T12:20:39.949Z,21.22
2023-04-19T12:21:39.967Z,22.51
2023-04-19T12:22:39.997Z,20.58
2023-04-19T12:23:40.099Z,20.58
2023-04-19T12:24:40.203Z,20.90
2023-04-19T12:25:40.296Z,20.58
2023-04-19T12:26:40.392Z,20.90
2023-04-19T12:27:40.469Z,21.22
2023-04-19T12:28:40.532Z,20.58
2023-04-19T12:29:40.632Z,20.90
2023-04-19T12:30:40.747Z,20.90
2023-04-19T12:31:40.829Z,21.22
2023-04-19T12:32:40.908Z,20.58
2023-04-19T12:33:41.017Z,20.58
2023-04-19T12:34:41.070Z,22.83
2023-04-19T12:35:41.169Z,20.90
2023-04-19T12:36:47.323Z,20.25
2023-04-19T12:37:41.311Z,21.87
2023-04-19T12:38:41.440Z,23.15
2023-04-19T12:39:41.503Z,20.90
2023-04-19T12:40:41.600Z,20.90
2023-04-19T12:41:41.665Z,21.22
2023-04-19T12:42:41.737Z,20.90
2023-04-19T12:43:41.837Z,20.90
2023-04-19T12:44:41.948Z,20.90
2023-04-19T12:45:42.043Z,21.54
2023-04-19T12:46:42.069Z,20.90
2023-04-19T12:47:42.181Z,20.90
2023-04-19T12:48:42.243Z,20.90
2023-04-19T12:49:42.343Z,21.22
2023-04-19T12:50:42.466Z,21.22
2023-04-19T12:51:42.549Z,20.58
2023-04-19T12:52:42.609Z,20.90
2023-04-19T12:53:42.699Z,20.58
2023-04-19T12:54:42.799Z,21.22
2023-04-19T12:55:42.889Z,20.90
2023-04-19T12:56:42.994Z,21.87
2023-04-19T12:57:43.041Z,20.90
2023-04-19T12:58:43.140Z,21.22
2023-04-19T12:59:43.245Z,21.22